createdAt,value
2022-08-05T00:03:15.684Z,91.20
2022-08-05T00:08:34.339Z,91.30
2022-08-05T00:13:41.741Z,91.40
2022-08-05T00:18:49.123Z,91.40
2022-08-05T00:24:10.622Z,91.60
2022-08-05T00:29:16.404Z,91.70
2022-08-05T00:34:53.412Z,91.80
2022-08-05T00:39:57.371Z,91.90
2022-08-05T00:45:05.672Z,92.00
2022-08-05T00:50:12.306Z,92.10
2022-08-05T00:55:17.301Z,92.00
2022-08-05T01:00:26.033Z,92.10
2022-08-05T01:05:29.967Z,92.30
2022-08-05T01:10:39.274Z,92.40
2022-08-05T01:15:49.811Z,92.40
2022-08-05T01:21:07.761Z,92.50
2022-08-05T01:26:31.032Z,92.30
2022-08-05T01:31:44.748Z,92.20
2022-08-05T01:37:01.372Z,92.40
2022-08-05T01:42:06.722Z,92.20
2022-08-05T01:47:18.801Z,92.30
2022-08-05T01:52:25.363Z,92.20
2022-08-05T01:58:14.776Z,92.30
2022-08-05T02:02:59.188Z,92.20
2022-08-05T02:08:05.536Z,92.10
2022-08-05T02:13:15.988Z,92.10
2022-08-05T02:18:28.283Z,91.90
2022-08-05T02:23:41.415Z,91.80
2022-08-05T02:28:46.358Z,91.80
2022-08-05T02:33:58.385Z,92.00
2022-08-05T02:39:08.840Z,92.10
2022-08-05T02:44:14.903Z,92.10
2022-08-05T02:49:22.321Z,92.00
2022-08-05T02:54:36.600Z,92.10
2022-08-05T02:59:50.169Z,92.00
2022-08-05T03:04:56.823Z,92.20
2022-08-05T03:10:00.500Z,92.20
2022-08-05T03:15:07.568Z,92.30
2022-08-05T03:20:14.669Z,92.40
2022-08-05T03:25:33.444Z,92.70
2022-08-05T03:30:44.331Z,92.80
2022-08-05T03:35:52.491Z,92.80
2022-08-05T03:40:57.756Z,92.90
2022-08-05T03:46:01.512Z,92.90
2022-08-05T03:52:36.992Z,93.10
2022-08-05T03:56:41.483Z,93.20
2022-08-05T04:01:49.130Z,93.20
2022-08-05T04:06:55.425Z,93.30
2022-08-05T04:12:00.222Z,93.40
2022-08-05T04:17:04.124Z,93.60
2022-08-05T04:22:12.082Z,93.50
2022-08-05T04:27:16.270Z,93.60
2022-08-05T04:32:31.229Z,93.90
2022-08-05T04:38:00.996Z,93.80
2022-08-05T04:43:02.247Z,93.80
2022-08-05T04:48:07.254Z,93.90
2022-08-05T04:53:21.527Z,93.90
2022-08-05T04:58:25.264Z,93.90
2022-08-05T05:03:32.513Z,94.10
2022-08-05T05:08:49.932Z,94.20
2022-08-05T05:13:55.260Z,94.20
2022-08-05T05:19:18.898Z,94.30
2022-08-05T05:24:58.365Z,94.20
2022-08-05T05:30:03.787Z,94.20
2022-08-05T05:35:09.402Z,94.30
2022-08-05T05:40:16.220Z,94.40
2022-08-05T05:45:24.693Z,94.50
2022-08-05T05:50:28.797Z,94.80
2022-08-05T05:55:51.492Z,94.70
2022-08-05T06:01:02.412Z,94.80
2022-08-05T06:06:16.155Z,94.70
2022-08-05T06:11:21.200Z,94.70
2022-08-05T06:16:32.864Z,94.70
2022-08-05T06:21:49.885Z,94.60
2022-08-05T06:26:56.822Z,94.50
2022-08-05T06:32:00.704Z,94.60
2022-08-05T06:37:06.158Z,94.60
2022-08-05T06:42:11.313Z,94.60
2022-08-05T06:47:30.089Z,94.60
2022-08-05T06:52:40.462Z,94.60
2022-08-05T06:58:02.610Z,94.70
2022-08-05T07:03:09.735Z,94.60
2022-08-05T07:08:13.769Z,94.80
2022-08-05T07:13:58.161Z,94.60
2022-08-05T07:19:03.369Z,94.70
2022-08-05T07:24:11.195Z,94.50
2022-08-05T07:29:16.696Z,94.40
2022-08-05T07:34:21.495Z,94.30
2022-08-05T07:40:04.391Z,94.20
2022-08-05T07:44:57.364Z,94.20
2022-08-05T07:50:06.515Z,93.90
2022-08-05T07:55:16.101Z,93.80
2022-08-05T08:00:36.355Z,93.60
2022-08-05T08:05:41.863Z,93.50
2022-08-05T08:10:49.114Z,93.50
2022-08-05T08:16:50.171Z,93.50
2022-08-05T08:21:18.159Z,93.60
2022-08-05T08:26:29.604Z,93.40
2022-08-05T08:31:35.117Z,93.10
2022-08-05T08:36:48.977Z,92.70
2022-08-05T08:42:02.282Z,92.50
2022-08-05T08:47:47.590Z,92.30
2022-08-05T08:52:34.483Z,92.40
2022-08-05T08:57:48.351Z,92.30
2022-08-05T09:03:06.558Z,91.50
2022-08-05T09:08:10.530Z,91.40
2022-08-05T09:13:16.266Z,90.20
2022-08-05T09:18:21.727Z,90.30
2022-08-05T09:23:28.901Z,89.00
2022-08-05T09:28:49.365Z,88.60
2022-08-05T09:33:56.212Z,87.10
2022-08-05T09:39:02.615Z,86.20
2022-08-05T09:44:06.831Z,84.20
2022-08-05T09:49:24.424Z,84.30
2022-08-05T09:55:06.270Z,84.20
2022-08-05T10:00:26.431Z,84.10
2022-08-05T10:05:33.006Z,82.10
2022-08-05T10:10:40.180Z,80.90
2022-08-05T10:15:45.413Z,78.50
2022-08-05T10:20:54.197Z,77.10
2022-08-05T10:25:58.529Z,77.10
2022-08-05T10:32:50.648Z,76.80
2022-08-05T10:36:30.793Z,75.60
2022-08-05T10:41:45.244Z,73.10
2022-08-05T10:46:54.623Z,73.50
2022-08-05T10:52:02.536Z,73.10
2022-08-05T10:57:07.092Z,70.00
2022-08-05T11:02:14.174Z,70.30
2022-08-05T11:08:02.787Z,70.80
2022-08-05T11:13:09.251Z,70.60
2022-08-05T11:18:27.190Z,70.40
2022-08-05T11:24:05.018Z,70.40
2022-08-05T11:29:06.690Z,70.20
2022-08-05T11:34:36.087Z,68.80
2022-08-05T11:40:00.305Z,69.00
2022-08-05T11:45:23.357Z,67.60
2022-08-05T11:50:39.649Z,66.30
2022-08-05T11:55:56.786Z,65.00
2022-08-05T12:01:08.500Z,65.00
2022-08-05T12:06:15.314Z,66.20
2022-08-05T12:11:23.834Z,64.10
2022-08-05T12:16:38.248Z,65.30
2022-08-05T12:21:48.615Z,65.80
2022-08-05T12:26:55.233Z,65.20
2022-08-05T12:32:02.040Z,66.20
2022-08-05T12:37:17.475Z,64.30
2022-08-05T12:42:30.793Z,63.50
2022-08-05T12:47:35.922Z,63.90
2022-08-05T12:52:42.641Z,64.00
2022-08-05T12:58:38.610Z,63.30
2022-08-05T13:03:12.271Z,61.90
2022-08-05T13:08:20.053Z,63.10
2022-08-05T13:14:04.608Z,60.40
2022-08-05T13:18:53.075Z,61.50
2022-08-05T13:24:01.605Z,61.70
2022-08-05T13:29:09.521Z,61.20
2022-08-05T13:34:23.189Z,61.80
2022-08-05T13:40:13.936Z,61.10
2022-08-05T13:44:54.988Z,60.40
2022-08-05T13:49:59.068Z,60.10
2022-08-05T13:55:02.810Z,59.60
2022-08-05T14:00:14.464Z,60.30
2022-08-05T14:05:47.999Z,59.60
2022-08-05T14:10:43.392Z,59.20
2022-08-05T14:16:06.193Z,59.10
2022-08-05T14:22:07.047Z,59.90
2022-08-05T14:26:51.378Z,60.10
2022-08-05T14:32:15.991Z,60.00
2022-08-05T14:37:45.693Z,60.40
2022-08-05T14:42:50.914Z,60.00
2022-08-05T14:48:02.820Z,60.20
2022-08-05T14:53:08.865Z,59.90
2022-08-05T14:58:15.396Z,60.00
2022-08-05T15:03:20.274Z,59.20
2022-08-05T15:08:58.021Z,59.70
2022-08-05T15:13:50.484Z,59.00
2022-08-05T15:18:55.510Z,58.90
2022-08-05T15:24:00.344Z,59.70
2022-08-05T15:29:03.997Z,59.70
2022-08-05T15:34:31.667Z,60.20
2022-08-05T15:41:01.991Z,61.40
2022-08-05T15:44:56.572Z,61.80
2022-08-05T15:50:01.617Z,62.20
2022-08-05T15:55:06.994Z,62.40
2022-08-05T16:00:17.017Z,62.50
2022-08-05T16:05:36.042Z,62.60
2022-08-05T16:10:42.787Z,63.10
2022-08-05T16:15:46.945Z,63.20
2022-08-05T16:20:52.973Z,63.20
2022-08-05T16:26:06.577Z,63.20
2022-08-05T16:31:11.302Z,63.50
2022-08-05T16:36:20.401Z,63.40
2022-08-05T16:42:15.147Z,63.60
2022-08-05T16:46:55.696Z,63.20
2022-08-05T16:52:01.403Z,63.30
2022-08-05T16:57:14.875Z,63.60
2022-08-05T17:02:26.038Z,63.40
2022-08-05T17:07:43.771Z,63.90
2022-08-05T17:12:57.452Z,63.60
2022-08-05T17:18:01.594Z,63.90
2022-08-05T17:23:06.697Z,63.80
2022-08-05T17:28:10.518Z,63.60
2022-08-05T17:33:24.539Z,63.30
2022-08-05T17:38:30.097Z,63.50
2022-08-05T17:43:50.651Z,63.30
2022-08-05T17:49:02.481Z,63.20
2022-08-05T17:54:14.355Z,63.30
2022-08-05T17:59:30.355Z,62.90
2022-08-05T18:04:35.724Z,62.40
2022-08-05T18:10:00.125Z,62.10
2022-08-05T18:15:08.719Z,62.10
2022-08-05T18:20:15.478Z,62.10
2022-08-05T18:25:22.524Z,63.40
2022-08-05T18:30:29.742Z,62.90
2022-08-05T18:36:00.876Z,63.10
2022-08-05T18:41:56.290Z,62.90
2022-08-05T18:46:22.380Z,63.30
2022-08-05T18:52:06.453Z,64.10
2022-08-05T18:57:15.543Z,63.90
2022-08-05T19:02:27.079Z,64.20
2022-08-05T19:07:45.302Z,64.20
2022-08-05T19:12:51.804Z,63.80
2022-08-05T19:18:09.674Z,63.70
2022-08-05T19:24:03.642Z,63.70
2022-08-05T19:28:44.143Z,64.20
2022-08-05T19:33:56.679Z,64.70
2022-08-05T19:39:03.849Z,64.70
2022-08-05T19:44:13.677Z,64.90
2022-08-05T19:49:21.906Z,65.10
2022-08-05T19:54:31.545Z,65.10
2022-08-05T19:59:55.505Z,66.00
2022-08-05T20:05:16.635Z,65.20
2022-08-05T20:10:30.463Z,65.60
2022-08-05T20:15:52.535Z,65.50
2022-08-05T20:21:05.231Z,65.70
2022-08-05T20:26:15.316Z,65.90
2022-08-05T20:31:28.584Z,65.70
2022-08-05T20:36:48.113Z,66.10
2022-08-05T20:41:53.377Z,66.20
2022-08-05T20:47:01.478Z,66.70
2022-08-05T20:52:07.420Z,66.90
2022-08-05T20:57:14.331Z,67.10
2022-08-05T21:02:19.895Z,67.50
2022-08-05T21:07:50.767Z,67.50
2022-08-05T21:13:02.703Z,67.50
2022-08-05T21:18:17.750Z,67.80
2022-08-05T21:23:22.014Z,68.00
2022-08-05T21:28:30.748Z,68.10
2022-08-05T21:33:36.996Z,68.00
2022-08-05T21:38:43.898Z,68.60
2022-08-05T21:43:51.028Z,68.50
2022-08-05T21:49:48.247Z,69.00
2022-08-05T21:54:43.862Z,68.90
2022-08-05T22:00:11.404Z,69.40
2022-08-05T22:05:27.457Z,69.90
2022-08-05T22:10:34.566Z,70.10
2022-08-05T22:16:00.639Z,70.20
2022-08-05T22:21:18.918Z,70.50
2022-08-05T22:26:49.702Z,70.60
2022-08-05T22:31:59.589Z,71.10
2022-08-05T22:37:08.774Z,71.20
2022-08-05T22:42:26.264Z,71.20
2022-08-05T22:47:32.726Z,71.50
2022-08-05T22:52:41.314Z,72.20
2022-08-05T22:57:47.027Z,72.50
2022-08-05T23:02:53.928Z,72.60
2022-08-05T23:07:59.305Z,72.80
2022-08-05T23:13:03.541Z,73.90
2022-08-05T23:18:11.648Z,73.20
2022-08-05T23:23:20.898Z,73.70
2022-08-05T23:28:29.056Z,74.00
2022-08-05T23:34:03.908Z,74.20
2022-08-05T23:38:59.566Z,74.50
2022-08-05T23:44:06.146Z,75.10
2022-08-05T23:49:16.164Z,74.80
2022-08-05T23:54:25.041Z,74.80
